createdAt,value
2017-08-12T00:02:01.861Z,13.37
2017-08-12T00:04:29.419Z,14.10
2017-08-12T00:06:56.877Z,13.33
2017-08-12T00:09:24.839Z,13.30
2017-08-12T00:11:52.321Z,12.27
2017-08-12T00:14:19.755Z,14.40
2017-08-12T00:16:47.226Z,14.17
2017-08-12T00:19:14.646Z,12.70
2017-08-12T00:21:42.169Z,11.03
2017-08-12T00:24:09.682Z,11.30
2017-08-12T00:26:37.123Z,12.53
2017-08-12T00:29:04.564Z,12.17
2017-08-12T00:31:31.984Z,11.77
2017-08-12T00:33:59.425Z,12.40
2017-08-12T00:36:26.880Z,12.33
2017-08-12T00:38:54.332Z,11.77
2017-08-12T00:41:21.779Z,13.20
2017-08-12T00:43:49.224Z,12.50
2017-08-12T00:46:16.665Z,13.17
2017-08-12T00:48:44.103Z,14.27
2017-08-12T00:51:12.292Z,13.83
2017-08-12T00:53:39.729Z,14.80
2017-08-12T00:56:07.157Z,13.37
2017-08-12T00:58:34.592Z,14.67
2017-08-12T01:01:02.039Z,13.37
2017-08-12T01:03:29.461Z,14.60
2017-08-12T01:05:56.905Z,14.17
2017-08-12T01:08:25.101Z,11.93
2017-08-12T01:10:52.536Z,13.90
2017-08-12T01:13:19.974Z,14.40
2017-08-12T01:15:47.408Z,13.50
2017-08-12T01:18:14.841Z,13.27
2017-08-12T01:20:42.277Z,13.57
2017-08-12T01:23:09.701Z,13.23
2017-08-12T01:25:37.906Z,14.90
2017-08-12T01:28:05.340Z,13.87
2017-08-12T01:30:32.789Z,13.00
2017-08-12T01:33:00.237Z,13.87
2017-08-12T01:35:27.680Z,14.50
2017-08-12T01:37:55.134Z,13.90
2017-08-12T01:40:22.573Z,14.57
2017-08-12T01:42:50.016Z,13.93
2017-08-12T01:45:17.608Z,14.30
2017-08-12T01:47:45.032Z,14.20
2017-08-12T01:50:12.452Z,14.67
2017-08-12T01:52:39.909Z,13.73
2017-08-12T01:55:07.352Z,14.87
2017-08-12T01:57:34.794Z,14.30
2017-08-12T02:00:02.228Z,13.80
2017-08-12T02:02:29.696Z,13.87
2017-08-12T02:04:57.230Z,15.03
2017-08-12T02:07:24.681Z,14.50
2017-08-12T02:09:52.114Z,14.97
2017-08-12T02:12:19.568Z,15.27
2017-08-12T02:14:47.059Z,16.00
2017-08-12T02:17:14.692Z,14.23
2017-08-12T02:19:42.124Z,14.60
2017-08-12T02:22:10.341Z,15.57
2017-08-12T02:24:37.777Z,17.20
2017-08-12T02:27:05.212Z,15.30
2017-08-12T02:29:32.664Z,16.20
2017-08-12T02:32:00.168Z,16.47
2017-08-12T02:34:27.629Z,16.00
2017-08-12T02:36:55.064Z,17.47
2017-08-12T02:39:22.500Z,16.60
2017-08-12T02:41:49.935Z,15.83
2017-08-12T02:44:17.368Z,16.93
2017-08-12T02:46:44.798Z,16.73
2017-08-12T02:49:12.264Z,16.90
2017-08-12T02:51:39.730Z,16.67
2017-08-12T02:54:07.289Z,16.27
2017-08-12T02:56:34.728Z,18.20
2017-08-12T02:59:02.185Z,15.90
2017-08-12T03:01:29.624Z,16.17
2017-08-12T03:03:57.070Z,16.63
2017-08-12T03:06:24.505Z,17.20
2017-08-12T03:08:51.933Z,18.50
2017-08-12T03:11:19.472Z,17.07
2017-08-12T03:13:46.908Z,16.03
2017-08-12T03:16:14.359Z,15.90
2017-08-12T03:18:41.796Z,15.47
2017-08-12T03:21:09.234Z,18.50
2017-08-12T03:23:36.660Z,15.10
2017-08-12T03:26:04.115Z,16.27
2017-08-12T03:28:31.564Z,15.70
2017-08-12T03:30:59.130Z,15.43
2017-08-12T03:33:26.769Z,16.77
2017-08-12T03:35:54.205Z,14.20
2017-08-12T03:38:21.628Z,13.73
2017-08-12T03:40:49.064Z,13.83
2017-08-12T03:43:16.632Z,14.77
2017-08-12T03:45:44.117Z,14.70
2017-08-12T03:48:11.545Z,14.80
2017-08-12T03:50:38.988Z,14.87
2017-08-12T03:53:06.437Z,14.83
2017-08-12T03:55:33.900Z,14.00
2017-08-12T03:58:01.342Z,13.83
2017-08-12T04:00:28.782Z,12.83
2017-08-12T04:02:56.221Z,12.90
2017-08-12T04:05:23.690Z,12.90
2017-08-12T04:07:51.125Z,12.70
2017-08-12T04:10:19.325Z,14.70
2017-08-12T04:12:46.825Z,13.40
2017-08-12T04:15:14.262Z,13.57
2017-08-12T04:17:41.703Z,14.97
2017-08-12T04:20:09.129Z,12.40
2017-08-12T04:22:36.584Z,13.57
2017-08-12T04:25:04.016Z,13.50
2017-08-12T04:27:31.447Z,12.30
2017-08-12T04:29:58.892Z,13.20
2017-08-12T04:32:26.325Z,11.60
2017-08-12T04:34:53.768Z,11.37
2017-08-12T04:37:21.196Z,11.73
2017-08-12T04:39:48.633Z,11.90
2017-08-12T04:42:16.281Z,14.20
2017-08-12T04:44:43.733Z,13.07
2017-08-12T04:47:11.165Z,13.00
2017-08-12T04:49:38.600Z,13.03
2017-08-12T04:52:06.032Z,12.90
2017-08-12T04:54:33.482Z,11.97
2017-08-12T04:57:00.917Z,12.40
2017-08-12T04:59:28.401Z,12.53
2017-08-12T05:01:55.833Z,13.37
2017-08-12T05:04:23.279Z,13.13
2017-08-12T05:06:50.705Z,12.57
2017-08-12T05:09:18.144Z,12.23
2017-08-12T05:11:46.345Z,12.50
2017-08-12T05:14:13.772Z,12.40
2017-08-12T05:16:41.220Z,11.40
2017-08-12T05:19:08.652Z,12.23
2017-08-12T05:21:36.185Z,12.47
2017-08-12T05:24:03.714Z,12.93
2017-08-12T05:26:31.147Z,13.07
2017-08-12T05:28:58.577Z,12.17
2017-08-12T05:31:26.248Z,12.23
2017-08-12T05:33:53.674Z,11.70
2017-08-12T05:36:21.112Z,11.63
2017-08-12T05:38:48.688Z,12.53
2017-08-12T05:41:16.452Z,12.30
2017-08-12T05:43:43.880Z,12.50
2017-08-12T05:46:11.320Z,13.03
2017-08-12T05:48:38.778Z,12.47
2017-08-12T05:51:06.208Z,12.53
2017-08-12T05:53:33.651Z,13.40
2017-08-12T05:56:01.106Z,12.73
2017-08-12T05:58:29.353Z,13.60
2017-08-12T06:00:56.902Z,11.87
2017-08-12T06:03:24.362Z,11.23
2017-08-12T06:05:51.836Z,11.90
2017-08-12T06:08:19.277Z,11.50
2017-08-12T06:10:46.716Z,11.10
2017-08-12T06:13:14.189Z,12.70
2017-08-12T06:15:41.632Z,13.20
2017-08-12T06:18:09.069Z,12.43
2017-08-12T06:20:37.289Z,12.23
2017-08-12T06:23:04.757Z,13.80
2017-08-12T06:25:32.386Z,13.47
2017-08-12T06:27:59.821Z,14.20
2017-08-12T06:30:28.033Z,12.13
2017-08-12T06:32:55.490Z,11.13
2017-08-12T06:35:22.934Z,11.33
2017-08-12T06:37:50.361Z,12.17
2017-08-12T06:40:17.795Z,11.23
2017-08-12T06:42:45.228Z,11.00
2017-08-12T06:45:12.683Z,10.70
2017-08-12T06:47:40.117Z,12.87
2017-08-12T06:50:07.557Z,11.13
2017-08-12T06:52:34.980Z,11.77
2017-08-12T06:55:03.189Z,11.20
2017-08-12T06:57:30.695Z,12.47
2017-08-12T06:59:58.149Z,12.40
2017-08-12T07:02:25.802Z,11.50
2017-08-12T07:04:53.374Z,11.77
2017-08-12T07:07:20.812Z,11.63
2017-08-12T07:09:48.256Z,9.73
2017-08-12T07:12:15.689Z,11.83
2017-08-12T07:14:43.174Z,10.67
2017-08-12T07:17:10.620Z,9.80
2017-08-12T07:19:38.049Z,10.97
2017-08-12T07:22:05.484Z,10.03
2017-08-12T07:24:32.917Z,10.17
2017-08-12T07:27:00.420Z,11.13
2017-08-12T07:29:27.841Z,9.50
2017-08-12T07:31:55.275Z,9.90
2017-08-12T07:34:22.702Z,9.90
2017-08-12T07:36:50.193Z,8.43
2017-08-12T07:39:17.626Z,8.13
2017-08-12T07:41:45.105Z,8.27
2017-08-12T07:44:12.640Z,7.90
2017-08-12T07:46:40.072Z,8.40
2017-08-12T07:49:07.492Z,7.23
2017-08-12T07:51:34.934Z,7.53
2017-08-12T07:54:02.354Z,6.50
2017-08-12T07:56:29.784Z,6.30
2017-08-12T07:58:57.222Z,6.23
2017-08-12T08:01:25.432Z,6.33
2017-08-12T08:03:52.853Z,5.30
2017-08-12T08:06:20.273Z,6.17
2017-08-12T08:08:47.705Z,5.30
2017-08-12T08:11:15.144Z,5.80
2017-08-12T08:13:42.613Z,5.17
2017-08-12T08:16:10.036Z,5.23
2017-08-12T08:18:38.534Z,6.30
2017-08-12T08:21:05.961Z,5.20
2017-08-12T08:23:33.396Z,5.37
2017-08-12T08:26:00.877Z,5.33
2017-08-12T08:28:28.341Z,4.87
2017-08-12T08:30:55.776Z,5.80
2017-08-12T08:33:23.221Z,5.87
2017-08-12T08:35:50.756Z,6.10
2017-08-12T08:38:18.189Z,5.13
2017-08-12T08:40:45.622Z,5.00
2017-08-12T08:43:13.045Z,4.10
2017-08-12T08:45:40.488Z,3.80
2017-08-12T08:48:08.041Z,4.77
2017-08-12T08:50:35.481Z,4.23
2017-08-12T08:53:02.912Z,4.53
2017-08-12T08:55:30.340Z,3.50
2017-08-12T08:57:57.771Z,4.20
2017-08-12T09:00:25.207Z,4.40
2017-08-12T09:02:52.638Z,4.77
2017-08-12T09:05:20.092Z,5.13
2017-08-12T09:07:48.276Z,4.33
2017-08-12T09:10:15.705Z,4.00
2017-08-12T09:12:43.133Z,4.47
2017-08-12T09:15:10.589Z,4.83
2017-08-12T09:17:38.000Z,4.87
2017-08-12T09:20:05.439Z,6.50
2017-08-12T09:22:33.629Z,6.00
2017-08-12T09:25:01.060Z,6.80
2017-08-12T09:27:28.477Z,5.23
2017-08-12T09:29:55.925Z,6.60
2017-08-12T09:32:24.030Z,4.23
2017-08-12T09:34:51.449Z,6.17
2017-08-12T09:37:18.887Z,5.43
2017-08-12T09:39:46.468Z,4.07
2017-08-12T09:42:13.905Z,4.33
2017-08-12T09:44:41.320Z,4.70
2017-08-12T09:47:08.748Z,5.77
2017-08-12T09:49:36.175Z,4.83
2017-08-12T09:52:03.613Z,4.90
2017-08-12T09:54:31.040Z,4.70
2017-08-12T09:56:58.463Z,4.73
2017-08-12T09:59:25.880Z,4.23
2017-08-12T10:01:53.314Z,4.83
2017-08-12T10:04:20.728Z,6.13
2017-08-12T10:06:48.173Z,5.77
2017-08-12T10:09:15.590Z,6.90
2017-08-12T10:11:43.034Z,4.40
2017-08-12T10:14:10.463Z,3.90
2017-08-12T10:16:37.880Z,5.13
2017-08-12T10:19:05.309Z,4.47
2017-08-12T10:21:33.501Z,4.90
2017-08-12T10:24:00.936Z,4.80
2017-08-12T10:26:28.360Z,4.63
2017-08-12T10:28:55.803Z,4.90
2017-08-12T10:31:23.225Z,5.20
2017-08-12T10:33:50.724Z,5.40
2017-08-12T10:36:18.152Z,4.50
2017-08-12T10:38:45.584Z,6.17
2017-08-12T10:41:13.948Z,4.20
2017-08-12T10:43:41.476Z,6.33
2017-08-12T10:46:08.905Z,4.63
2017-08-12T10:48:36.353Z,5.30
2017-08-12T10:51:03.792Z,5.90
2017-08-12T10:53:31.225Z,5.00
2017-08-12T10:55:59.452Z,4.00
2017-08-12T10:58:26.886Z,4.83
2017-08-12T11:00:55.224Z,4.93
2017-08-12T11:03:22.667Z,5.10
2017-08-12T11:05:50.125Z,8.10
2017-08-12T11:08:17.532Z,5.10
2017-08-12T11:10:44.969Z,5.40
2017-08-12T11:13:13.148Z,5.03
2017-08-12T11:15:40.584Z,5.10
2017-08-12T11:18:08.035Z,4.60
2017-08-12T11:20:35.482Z,4.97
2017-08-12T11:23:02.889Z,4.97
2017-08-12T11:25:30.457Z,5.50
2017-08-12T11:27:57.884Z,5.23
2017-08-12T11:30:25.317Z,4.63
2017-08-12T11:32:52.829Z,4.43
2017-08-12T11:35:20.256Z,5.30
2017-08-12T11:37:47.692Z,6.20
2017-08-12T11:40:15.117Z,4.80
2017-08-12T11:42:42.549Z,5.03
2017-08-12T11:45:10.109Z,5.37
2017-08-12T11:47:37.560Z,5.10
2017-08-12T11:50:04.992Z,5.20
2017-08-12T11:52:32.434Z,5.10
2017-08-12T11:54:59.853Z,4.60
2017-08-12T11:57:27.284Z,4.03
2017-08-12T11:59:54.721Z,4.00
2017-08-12T12:02:22.139Z,4.30
2017-08-12T12:04:49.668Z,3.67
2017-08-12T12:07:17.090Z,4.40
2017-08-12T12:09:44.534Z,3.70
2017-08-12T12:12:11.953Z,3.63
2017-08-12T12:14:39.381Z,3.63
2017-08-12T12:17:06.816Z,4.10
2017-08-12T12:19:34.263Z,3.77
2017-08-12T12:22:01.829Z,4.07
2017-08-12T12:24:29.265Z,4.93
2017-08-12T12:26:57.502Z,4.40
2017-08-12T12:29:24.920Z,4.90
2017-08-12T12:31:52.399Z,5.10
2017-08-12T12:34:19.860Z,5.60
2017-08-12T12:36:47.312Z,3.90
2017-08-12T12:39:14.743Z,4.03
2017-08-12T12:41:42.173Z,4.00
2017-08-12T12:44:09.600Z,4.00
2017-08-12T12:46:37.029Z,3.47
2017-08-12T12:49:04.449Z,3.43
2017-08-12T12:51:31.884Z,3.90
2017-08-12T12:54:00.089Z,3.40
2017-08-12T12:56:27.526Z,3.60
2017-08-12T12:58:54.941Z,3.80
2017-08-12T13:01:22.490Z,4.00
2017-08-12T13:03:49.948Z,3.60
2017-08-12T13:06:17.389Z,3.40
2017-08-12T13:08:44.804Z,4.23
2017-08-12T13:11:12.307Z,4.27
2017-08-12T13:13:39.773Z,5.00
2017-08-12T13:16:07.484Z,3.37
2017-08-12T13:18:34.905Z,4.50
2017-08-12T13:21:02.450Z,3.87
2017-08-12T13:23:30.096Z,3.67
2017-08-12T13:25:57.513Z,3.93
2017-08-12T13:28:25.693Z,3.30
2017-08-12T13:30:53.118Z,3.00
2017-08-12T13:33:20.590Z,3.77
2017-08-12T13:35:48.013Z,3.93
2017-08-12T13:38:15.450Z,3.43
2017-08-12T13:43:16.784Z,3.57
2017-08-12T13:45:44.217Z,3.43
2017-08-12T13:48:12.413Z,3.43
2017-08-12T13:50:39.833Z,3.20
2017-08-12T13:53:07.278Z,3.23
2017-08-12T13:55:34.817Z,2.80
2017-08-12T13:58:02.244Z,3.43
2017-08-12T14:00:29.665Z,3.60
2017-08-12T14:02:57.108Z,3.43
2017-08-12T14:05:24.645Z,4.13
2017-08-12T14:07:52.097Z,3.77
2017-08-12T14:10:19.529Z,2.90
2017-08-12T14:12:46.953Z,2.70
2017-08-12T14:15:14.433Z,3.13
2017-08-12T14:17:41.860Z,4.40
2017-08-12T14:20:09.276Z,3.03
2017-08-12T14:22:36.721Z,3.50
2017-08-12T14:25:04.137Z,3.20
2017-08-12T14:27:32.350Z,4.43
2017-08-12T14:29:59.777Z,4.87
2017-08-12T14:32:27.268Z,3.40
2017-08-12T14:34:54.692Z,3.17
2017-08-12T14:37:22.133Z,4.00
2017-08-12T14:39:49.552Z,3.30
2017-08-12T14:42:17.001Z,4.37
2017-08-12T14:44:44.425Z,4.30
2017-08-12T14:47:11.856Z,4.13
2017-08-12T14:49:40.053Z,3.60
2017-08-12T14:52:07.487Z,4.37
2017-08-12T14:54:35.001Z,3.70
2017-08-12T14:57:02.417Z,3.73
2017-08-12T14:59:29.841Z,4.00
2017-08-12T15:01:57.277Z,4.30
2017-08-12T15:04:24.808Z,3.50
2017-08-12T15:06:52.264Z,4.07
2017-08-12T15:09:19.693Z,3.87
2017-08-12T15:11:47.130Z,3.43
2017-08-12T15:14:14.636Z,4.10
2017-08-12T15:16:42.089Z,4.03
2017-08-12T15:19:09.521Z,3.80
2017-08-12T15:21:37.013Z,4.87
2017-08-12T15:24:04.498Z,5.30
2017-08-12T15:26:31.920Z,5.60
2017-08-12T15:28:59.356Z,5.10
2017-08-12T15:31:26.815Z,7.03
2017-08-12T15:33:54.237Z,4.10
2017-08-12T15:36:21.661Z,4.00
2017-08-12T15:38:49.092Z,3.73
2017-08-12T15:41:16.613Z,4.10
2017-08-12T15:43:44.049Z,4.30
2017-08-12T15:46:11.508Z,4.43
2017-08-12T15:48:38.937Z,3.53
2017-08-12T15:51:06.389Z,3.50
2017-08-12T15:53:33.804Z,4.03
2017-08-12T15:56:01.233Z,4.17
2017-08-12T15:58:29.431Z,4.20
2017-08-12T16:00:56.848Z,3.20
2017-08-12T16:03:24.277Z,4.40
2017-08-12T16:05:51.704Z,4.13
2017-08-12T16:08:19.164Z,4.57
2017-08-12T16:10:46.644Z,5.00
2017-08-12T16:13:14.072Z,3.90
2017-08-12T16:15:41.548Z,3.47
2017-08-12T16:18:09.040Z,3.40
2017-08-12T16:20:36.473Z,3.93
2017-08-12T16:23:03.901Z,5.77
2017-08-12T16:25:31.316Z,4.00
2017-08-12T16:27:58.997Z,3.40
2017-08-12T16:30:26.405Z,3.97
2017-08-12T16:32:53.840Z,3.60
2017-08-12T16:35:21.252Z,3.33
2017-08-12T16:37:48.708Z,4.20
2017-08-12T16:40:16.137Z,3.83
2017-08-12T16:42:43.566Z,4.00
2017-08-12T16:45:11.005Z,3.73
2017-08-12T16:47:38.420Z,4.20
2017-08-12T16:50:05.863Z,3.63
2017-08-12T16:52:33.281Z,3.80
2017-08-12T16:55:00.709Z,4.63
2017-08-12T16:57:28.137Z,4.03
2017-08-12T16:59:55.574Z,3.87
2017-08-12T17:02:22.997Z,3.93
2017-08-12T17:04:50.441Z,4.67
2017-08-12T17:07:17.873Z,4.50
2017-08-12T17:29:54.491Z,4.57
2017-08-12T17:32:21.962Z,3.60
2017-08-12T17:34:49.647Z,3.90
2017-08-12T17:37:17.062Z,5.87
2017-08-12T17:39:44.514Z,3.40
2017-08-12T17:42:12.895Z,4.80
2017-08-12T17:44:41.455Z,4.10
2017-08-12T17:47:09.084Z,5.73
2017-08-12T17:49:36.917Z,3.93
2017-08-12T17:52:04.467Z,3.93
2017-08-12T17:54:32.079Z,4.70
2017-08-12T17:56:59.492Z,3.47
2017-08-12T17:59:26.943Z,3.40
2017-08-12T18:01:54.364Z,3.90
2017-08-12T18:04:21.924Z,4.20
2017-08-12T18:06:49.340Z,4.10
2017-08-12T18:09:16.763Z,3.60
2017-08-12T18:11:44.268Z,2.90
2017-08-12T18:14:11.687Z,3.13
2017-08-12T18:16:39.152Z,4.50
2017-08-12T18:19:06.593Z,3.70
2017-08-12T18:21:34.024Z,3.97
2017-08-12T18:24:02.247Z,3.83
2017-08-12T18:26:29.683Z,4.07
2017-08-12T18:28:57.103Z,5.20
2017-08-12T18:31:24.528Z,4.70
2017-08-12T18:33:51.979Z,4.43
2017-08-12T18:36:19.524Z,5.00
2017-08-12T18:38:46.942Z,3.70
2017-08-12T18:41:14.348Z,3.93
2017-08-12T18:43:41.781Z,4.33
2017-08-12T18:46:09.250Z,4.33
2017-08-12T18:48:36.720Z,3.90
2017-08-12T18:51:04.170Z,4.13
2017-08-12T18:53:31.612Z,5.10
2017-08-12T18:55:59.199Z,4.57
2017-08-12T18:58:26.636Z,4.63
2017-08-12T19:00:54.051Z,3.90
2017-08-12T19:03:21.486Z,4.50
2017-08-12T19:05:48.904Z,5.30
2017-08-12T19:08:16.332Z,4.97
2017-08-12T19:10:43.760Z,6.30
2017-08-12T19:13:11.959Z,5.93
2017-08-12T19:15:39.377Z,4.93
2017-08-12T19:18:06.816Z,4.57
2017-08-12T19:20:34.265Z,4.17
2017-08-12T19:23:01.692Z,4.10
2017-08-12T19:25:29.259Z,4.53
2017-08-12T19:27:56.719Z,4.93
2017-08-12T19:30:24.191Z,4.03
2017-08-12T19:32:51.606Z,4.17
2017-08-12T19:35:19.034Z,5.30
2017-08-12T19:37:46.475Z,5.87
2017-08-12T19:40:14.008Z,4.60
2017-08-12T19:45:15.951Z,4.80
2017-08-12T19:47:43.405Z,4.57
2017-08-12T19:50:10.800Z,4.43
2017-08-12T19:52:38.232Z,4.50
2017-08-12T19:55:05.751Z,4.80
2017-08-12T19:57:33.189Z,4.23
2017-08-12T20:00:00.604Z,4.40
2017-08-12T20:02:28.109Z,4.20
2017-08-12T20:04:55.536Z,5.33
2017-08-12T20:07:22.966Z,4.43
2017-08-12T20:09:50.396Z,5.00
2017-08-12T20:12:18.585Z,5.00
2017-08-12T20:14:46.028Z,5.33
2017-08-12T20:17:13.464Z,5.13
2017-08-12T20:19:40.892Z,4.37
2017-08-12T20:22:08.303Z,4.40
2017-08-12T20:24:35.765Z,5.07
2017-08-12T20:27:03.203Z,4.57
2017-08-12T20:29:31.412Z,5.50
2017-08-12T20:31:58.827Z,4.10
2017-08-12T20:34:26.340Z,4.10
2017-08-12T20:36:53.764Z,4.23
2017-08-12T20:39:21.183Z,5.23
2017-08-12T20:41:48.624Z,4.93
2017-08-12T20:44:16.031Z,5.00
2017-08-12T20:46:43.471Z,5.13
2017-08-12T20:49:11.668Z,4.83
2017-08-12T20:51:39.147Z,5.33
2017-08-12T20:54:06.579Z,5.17
2017-08-12T20:56:34.456Z,4.93
2017-08-12T20:59:01.928Z,4.53
2017-08-12T21:01:29.461Z,5.53
2017-08-12T21:03:56.954Z,5.40
2017-08-12T21:06:24.363Z,5.73
2017-08-12T21:08:51.833Z,5.43
2017-08-12T21:11:19.295Z,5.20
2017-08-12T21:13:46.781Z,5.07
2017-08-12T21:16:14.239Z,6.03
2017-08-12T21:18:41.678Z,4.60
2017-08-12T21:21:09.131Z,5.20
2017-08-12T21:23:36.588Z,5.47
2017-08-12T21:26:03.996Z,5.77
2017-08-12T21:28:32.191Z,6.60
2017-08-12T21:30:59.614Z,6.53
2017-08-12T21:33:27.030Z,7.47
2017-08-12T21:35:54.464Z,7.30
2017-08-12T21:38:21.934Z,7.53
2017-08-12T21:40:49.386Z,4.87
2017-08-12T21:43:16.808Z,4.63
2017-08-12T21:45:45.008Z,5.33
2017-08-12T21:48:12.419Z,5.37
2017-08-12T21:50:39.841Z,4.87
2017-08-12T21:53:07.263Z,4.50
2017-08-12T21:55:34.684Z,4.70
2017-08-12T21:58:02.204Z,5.17
2017-08-12T22:00:29.627Z,5.13
2017-08-12T22:02:57.221Z,4.80
2017-08-12T22:05:24.644Z,5.17
2017-08-12T22:07:52.077Z,5.00
2017-08-12T22:10:19.500Z,5.37
2017-08-12T22:12:46.946Z,4.87
2017-08-12T22:15:14.363Z,6.40
2017-08-12T22:17:41.960Z,6.60
2017-08-12T22:20:09.386Z,5.00
2017-08-12T22:22:36.859Z,4.40
2017-08-12T22:25:04.320Z,5.37
2017-08-12T22:27:31.740Z,5.53
2017-08-12T22:29:59.192Z,5.30
2017-08-12T22:32:26.616Z,5.17
2017-08-12T22:34:54.066Z,5.50
2017-08-12T22:37:21.483Z,5.77
2017-08-12T22:39:48.899Z,5.03
2017-08-12T22:42:17.091Z,4.57
2017-08-12T22:44:44.503Z,4.53
2017-08-12T22:47:11.935Z,5.40
2017-08-12T22:49:39.363Z,5.10
2017-08-12T22:52:07.599Z,5.10
2017-08-12T22:54:35.027Z,5.40
2017-08-12T22:57:02.452Z,5.50
2017-08-12T22:59:29.867Z,4.60
2017-08-12T23:01:57.295Z,5.57
2017-08-12T23:04:24.724Z,5.40
2017-08-12T23:06:52.148Z,4.83
2017-08-12T23:09:19.763Z,5.00
2017-08-12T23:11:47.187Z,5.60
2017-08-12T23:14:14.611Z,5.27
2017-08-12T23:16:42.040Z,6.33
2017-08-12T23:19:09.467Z,5.23
2017-08-12T23:21:36.892Z,5.13
2017-08-12T23:24:05.084Z,4.63
2017-08-12T23:26:32.515Z,5.40
2017-08-12T23:28:59.979Z,5.07
2017-08-12T23:31:27.403Z,5.00
2017-08-12T23:33:54.838Z,5.67
2017-08-12T23:36:22.264Z,6.03
2017-08-12T23:38:49.719Z,5.83
2017-08-12T23:41:17.308Z,5.47
2017-08-12T23:43:44.720Z,5.07
2017-08-12T23:46:12.148Z,8.00
2017-08-12T23:48:39.568Z,4.87
2017-08-12T23:51:07.064Z,6.27
2017-08-12T23:53:34.491Z,5.67
2017-08-12T23:56:01.928Z,5.67
2017-08-12T23:58:29.364Z,6.53
